sensor_id;sensor_type;location;lat;lon;timestamp;temperature;humidity
31725;DHT22;18306;40.960;14.836;2022-12-20T00:01:25;8.00;99.90
31725;DHT22;18306;40.960;14.836;2022-12-20T00:03:54;8.00;99.90
31725;DHT22;18306;40.960;14.836;2022-12-20T00:06:22;8.00;99.90
31725;DHT22;18306;40.960;14.836;2022-12-20T00:08:54;8.00;99.90
31725;DHT22;18306;40.960;14.836;2022-12-20T00:11:22;8.10;99.90
31725;DHT22;18306;40.960;14.836;2022-12-20T00:13:49;8.00;99.90
31725;DHT22;18306;40.960;14.836;2022-12-20T00:16:18;8.00;99.90
31725;DHT22;18306;40.960;14.836;2022-12-20T00:18:46;8.00;99.90
31725;DHT22;18306;40.960;14.836;2022-12-20T00:21:13;8.00;99.90
31725;DHT22;18306;40.960;14.836;2022-12-20T00:23:41;8.00;99.90
31725;DHT22;18306;40.960;14.836;2022-12-20T00:26:14;7.90;99.90
31725;DHT22;18306;40.960;14.836;2022-12-20T00:28:44;7.90;99.90
31725;DHT22;18306;40.960;14.836;2022-12-20T00:31:15;7.90;99.90
31725;DHT22;18306;40.960;14.836;2022-12-20T00:33:48;7.90;99.90
31725;DHT22;18306;40.960;14.836;2022-12-20T00:36:16;7.80;99.90
31725;DHT22;18306;40.960;14.836;2022-12-20T00:38:48;7.70;99.90
31725;DHT22;18306;40.960;14.836;2022-12-20T00:41:18;7.70;99.90
31725;DHT22;18306;40.960;14.836;2022-12-20T00:43:46;7.60;99.90
31725;DHT22;18306;40.960;14.836;2022-12-20T00:46:14;7.40;99.90
31725;DHT22;18306;40.960;14.836;2022-12-20T00:48:41;7.10;99.90
31725;DHT22;18306;40.960;14.836;2022-12-20T00:51:16;6.90;99.90
31725;DHT22;18306;40.960;14.836;2022-12-20T00:53:43;6.80;99.90
31725;DHT22;18306;40.960;14.836;2022-12-20T00:56:11;6.80;99.90
31725;DHT22;18306;40.960;14.836;2022-12-20T00:58:40;6.90;99.90
31725;DHT22;18306;40.960;14.836;2022-12-20T01:01:25;6.90;99.90
31725;DHT22;18306;40.960;14.836;2022-12-20T01:03:53;7.00;99.90
31725;DHT22;18306;40.960;14.836;2022-12-20T01:06:21;7.00;99.90
31725;DHT22;18306;40.960;14.836;2022-12-20T01:08:48;7.10;99.90
31725;DHT22;18306;40.960;14.836;2022-12-20T01:11:22;7.20;99.90
31725;DHT22;18306;40.960;14.836;2022-12-20T01:13:54;7.30;99.90
31725;DHT22;18306;40.960;14.836;2022-12-20T01:16:27;7.20;99.90
31725;DHT22;18306;40.960;14.836;2022-12-20T01:18:55;7.20;99.90
31725;DHT22;18306;40.960;14.836;2022-12-20T01:21:23;7.20;99.90
31725;DHT22;18306;40.960;14.836;2022-12-20T01:23:51;7.20;99.90
31725;DHT22;18306;40.960;14.836;2022-12-20T01:26:21;7.20;99.90
31725;DHT22;18306;40.960;14.836;2022-12-20T01:28:52;7.20;99.90
31725;DHT22;18306;40.960;14.836;2022-12-20T01:31:20;7.30;99.90
31725;DHT22;18306;40.960;14.836;2022-12-20T01:33:48;7.20;99.90
31725;DHT22;18306;40.960;14.836;2022-12-20T01:36:24;7.30;99.90
31725;DHT22;18306;40.960;14.836;2022-12-20T01:38:58;7.30;99.90
31725;DHT22;18306;40.960;14.836;2022-12-20T01:41:26;7.40;99.90
31725;DHT22;18306;40.960;14.836;2022-12-20T01:43:59;7.40;99.90
31725;DHT22;18306;40.960;14.836;2022-12-20T01:46:29;7.10;99.90
31725;DHT22;18306;40.960;14.836;2022-12-20T01:51:59;6.70;99.90
31725;DHT22;18306;40.960;14.836;2022-12-20T01:57:01;6.40;99.90
31725;DHT22;18306;40.960;14.836;2022-12-20T01:59:31;6.20;99.90
31725;DHT22;18306;40.960;14.836;2022-12-20T02:02:02;6.10;99.90
31725;DHT22;18306;40.960;14.836;2022-12-20T02:04:30;6.20;99.90
31725;DHT22;18306;40.960;14.836;2022-12-20T02:06:59;6.20;99.90
31725;DHT22;18306;40.960;14.836;2022-12-20T02:09:26;6.20;99.90
31725;DHT22;18306;40.960;14.836;2022-12-20T02:12:06;6.20;99.90
31725;DHT22;18306;40.960;14.836;2022-12-20T02:17:53;6.30;99.90
31725;DHT22;18306;40.960;14.836;2022-12-20T02:26:00;6.60;99.90
31725;DHT22;18306;40.960;14.836;2022-12-20T02:31:06;6.60;99.90
31725;DHT22;18306;40.960;14.836;2022-12-20T02:33:34;6.70;99.90
31725;DHT22;18306;40.960;14.836;2022-12-20T02:36:02;6.70;99.90
31725;DHT22;18306;40.960;14.836;2022-12-20T02:38:33;6.70;99.90
31725;DHT22;18306;40.960;14.836;2022-12-20T02:41:20;6.70;99.90
31725;DHT22;18306;40.960;14.836;2022-12-20T02:43:53;6.70;99.90
31725;DHT22;18306;40.960;14.836;2022-12-20T02:46:39;6.80;99.90
31725;DHT22;18306;40.960;14.836;2022-12-20T02:49:14;6.80;99.90
31725;DHT22;18306;40.960;14.836;2022-12-20T02:51:44;6.90;99.90
31725;DHT22;18306;40.960;14.836;2022-12-20T02:54:13;7.00;99.90
31725;DHT22;18306;40.960;14.836;2022-12-20T02:56:50;7.10;99.90
31725;DHT22;18306;40.960;14.836;2022-12-20T02:59:33;7.10;99.90
31725;DHT22;18306;40.960;14.836;2022-12-20T03:02:05;7.00;99.90
31725;DHT22;18306;40.960;14.836;2022-12-20T03:04:36;6.90;99.90
31725;DHT22;18306;40.960;14.836;2022-12-20T03:07:12;6.90;99.90
31725;DHT22;18306;40.960;14.836;2022-12-20T03:09:42;6.80;99.90
31725;DHT22;18306;40.960;14.836;2022-12-20T03:12:12;6.70;99.90
31725;DHT22;18306;40.960;14.836;2022-12-20T03:14:40;6.70;99.90
31725;DHT22;18306;40.960;14.836;2022-12-20T03:17:08;6.60;99.90
31725;DHT22;18306;40.960;14.836;2022-12-20T03:19:38;6.60;99.90
31725;DHT22;18306;40.960;14.836;2022-12-20T03:22:06;6.60;99.90
31725;DHT22;18306;40.960;14.836;2022-12-20T03:24:33;6.60;99.90
31725;DHT22;18306;40.960;14.836;2022-12-20T03:27:00;6.70;99.90
31725;DHT22;18306;40.960;14.836;2022-12-20T03:29:28;6.70;99.90
31725;DHT22;18306;40.960;14.836;2022-12-20T03:31:55;6.80;99.90
31725;DHT22;18306;40.960;14.836;2022-12-20T03:34:22;6.80;99.90
31725;DHT22;18306;40.960;14.836;2022-12-20T03:36:48;6.90;99.90
31725;DHT22;18306;40.960;14.836;2022-12-20T03:39:16;6.90;99.90
31725;DHT22;18306;40.960;14.836;2022-12-20T03:41:43;6.70;99.90
31725;DHT22;18306;40.960;14.836;2022-12-20T03:44:13;6.70;99.90
31725;DHT22;18306;40.960;14.836;2022-12-20T03:46:40;6.70;99.90
31725;DHT22;18306;40.960;14.836;2022-12-20T03:49:07;6.70;99.90
31725;DHT22;18306;40.960;14.836;2022-12-20T03:51:43;6.60;99.90
31725;DHT22;18306;40.960;14.836;2022-12-20T03:54:10;6.40;99.90
31725;DHT22;18306;40.960;14.836;2022-12-20T03:57:09;6.20;99.90
31725;DHT22;18306;40.960;14.836;2022-12-20T03:59:36;5.90;99.90
31725;DHT22;18306;40.960;14.836;2022-12-20T04:02:05;5.80;99.90
31725;DHT22;18306;40.960;14.836;2022-12-20T04:04:32;5.70;99.90
31725;DHT22;18306;40.960;14.836;2022-12-20T04:06:59;5.80;99.90
31725;DHT22;18306;40.960;14.836;2022-12-20T04:09:26;5.80;99.90
31725;DHT22;18306;40.960;14.836;2022-12-20T04:12:00;5.80;99.90
31725;DHT22;18306;40.960;14.836;2022-12-20T04:14:28;5.80;99.90
31725;DHT22;18306;40.960;14.836;2022-12-20T04:16:55;5.90;99.90
31725;DHT22;18306;40.960;14.836;2022-12-20T04:19:23;6.00;99.90
31725;DHT22;18306;40.960;14.836;2022-12-20T04:21:50;6.10;99.90
31725;DHT22;18306;40.960;14.836;2022-12-20T04:24:26;6.10;99.90
31725;DHT22;18306;40.960;14.836;2022-12-20T04:27:13;6.00;99.90
31725;DHT22;18306;40.960;14.836;2022-12-20T04:29:40;5.80;99.90
31725;DHT22;18306;40.960;14.836;2022-12-20T04:32:10;5.80;99.90
31725;DHT22;18306;40.960;14.836;2022-12-20T04:34:38;5.90;99.90
31725;DHT22;18306;40.960;14.836;2022-12-20T04:37:05;5.90;99.90
31725;DHT22;18306;40.960;14.836;2022-12-20T04:39:44;5.90;99.90
31725;DHT22;18306;40.960;14.836;2022-12-20T04:42:24;5.90;99.90
31725;DHT22;18306;40.960;14.836;2022-12-20T04:44:53;5.90;99.90
31725;DHT22;18306;40.960;14.836;2022-12-20T04:47:28;5.90;99.90
31725;DHT22;18306;40.960;14.836;2022-12-20T04:49:55;6.00;99.90
31725;DHT22;18306;40.960;14.836;2022-12-20T04:52:22;6.10;99.90
31725;DHT22;18306;40.960;14.836;2022-12-20T04:55:08;6.30;99.90
31725;DHT22;18306;40.960;14.836;2022-12-20T04:57:36;6.40;99.90
31725;DHT22;18306;40.960;14.836;2022-12-20T05:00:05;6.40;99.90
31725;DHT22;18306;40.960;14.836;2022-12-20T05:02:33;6.50;99.90
31725;DHT22;18306;40.960;14.836;2022-12-20T05:05:05;6.60;99.90
31725;DHT22;18306;40.960;14.836;2022-12-20T05:07:39;6.70;99.90
31725;DHT22;18306;40.960;14.836;2022-12-20T05:10:07;6.80;99.90
31725;DHT22;18306;40.960;14.836;2022-12-20T05:12:34;6.90;99.90
31725;DHT22;18306;40.960;14.836;2022-12-20T05:15:03;7.00;99.90
31725;DHT22;18306;40.960;14.836;2022-12-20T05:17:31;7.10;99.90
31725;DHT22;18306;40.960;14.836;2022-12-20T05:19:58;7.10;99.90
31725;DHT22;18306;40.960;14.836;2022-12-20T05:22:25;7.20;99.90
31725;DHT22;18306;40.960;14.836;2022-12-20T05:25:13;7.20;99.90
31725;DHT22;18306;40.960;14.836;2022-12-20T05:28:03;7.20;99.90
31725;DHT22;18306;40.960;14.836;2022-12-20T05:30:34;7.20;99.90
31725;DHT22;18306;40.960;14.836;2022-12-20T05:33:01;7.20;99.90
31725;DHT22;18306;40.960;14.836;2022-12-20T05:35:29;7.30;99.90
31725;DHT22;18306;40.960;14.836;2022-12-20T05:38:03;7.20;99.90
31725;DHT22;18306;40.960;14.836;2022-12-20T05:40:31;7.20;99.90
31725;DHT22;18306;40.960;14.836;2022-12-20T05:42:58;7.20;99.90
31725;DHT22;18306;40.960;14.836;2022-12-20T05:45:35;7.20;99.90
31725;DHT22;18306;40.960;14.836;2022-12-20T05:48:07;7.20;99.90
31725;DHT22;18306;40.960;14.836;2022-12-20T05:50:38;7.10;99.90
31725;DHT22;18306;40.960;14.836;2022-12-20T05:53:25;7.10;99.90
31725;DHT22;18306;40.960;14.836;2022-12-20T05:55:55;7.20;99.90
31725;DHT22;18306;40.960;14.836;2022-12-20T05:58:28;7.20;99.90
31725;DHT22;18306;40.960;14.836;2022-12-20T06:01:01;7.20;99.90
31725;DHT22;18306;40.960;14.836;2022-12-20T06:03:29;7.20;99.90
31725;DHT22;18306;40.960;14.836;2022-12-20T06:05:57;7.20;99.90
31725;DHT22;18306;40.960;14.836;2022-12-20T06:08:28;7.20;99.90
31725;DHT22;18306;40.960;14.836;2022-12-20T06:10:57;7.10;99.90
31725;DHT22;18306;40.960;14.836;2022-12-20T06:13:24;7.20;99.90
31725;DHT22;18306;40.960;14.836;2022-12-20T06:15:53;7.30;99.90
31725;DHT22;18306;40.960;14.836;2022-12-20T06:18:21;7.20;99.90
31725;DHT22;18306;40.960;14.836;2022-12-20T06:20:52;7.20;99.90
31725;DHT22;18306;40.960;14.836;2022-12-20T06:23:24;7.20;99.90
31725;DHT22;18306;40.960;14.836;2022-12-20T06:26:02;7.30;99.90
31725;DHT22;18306;40.960;14.836;2022-12-20T06:28:34;7.30;99.90
31725;DHT22;18306;40.960;14.836;2022-12-20T06:31:02;7.40;99.90
31725;DHT22;18306;40.960;14.836;2022-12-20T06:33:40;7.30;99.90
31725;DHT22;18306;40.960;14.836;2022-12-20T06:36:07;7.30;99.90
31725;DHT22;18306;40.960;14.836;2022-12-20T06:38:34;7.20;99.90
31725;DHT22;18306;40.960;14.836;2022-12-20T06:41:01;7.10;99.90
31725;DHT22;18306;40.960;14.836;2022-12-20T06:43:28;7.10;99.90
31725;DHT22;18306;40.960;14.836;2022-12-20T06:45:55;7.10;99.90
31725;DHT22;18306;40.960;14.836;2022-12-20T06:48:26;7.20;99.90
31725;DHT22;18306;40.960;14.836;2022-12-20T06:51:19;7.20;99.90
31725;DHT22;18306;40.960;14.836;2022-12-20T06:54:05;7.10;99.90
31725;DHT22;18306;40.960;14.836;2022-12-20T06:56:39;7.00;99.90
31725;DHT22;18306;40.960;14.836;2022-12-20T06:59:19;7.00;99.90
31725;DHT22;18306;40.960;14.836;2022-12-20T07:01:57;6.90;99.90
31725;DHT22;18306;40.960;14.836;2022-12-20T07:04:32;6.80;99.90
31725;DHT22;18306;40.960;14.836;2022-12-20T07:07:27;6.80;99.90
31725;DHT22;18306;40.960;14.836;2022-12-20T07:10:10;6.70;99.90
31725;DHT22;18306;40.960;14.836;2022-12-20T07:12:36;6.50;99.90
31725;DHT22;18306;40.960;14.836;2022-12-20T07:15:04;6.40;99.90
31725;DHT22;18306;40.960;14.836;2022-12-20T07:17:31;6.40;99.90
31725;DHT22;18306;40.960;14.836;2022-12-20T07:19:58;6.40;99.90
31725;DHT22;18306;40.960;14.836;2022-12-20T07:22:25;6.60;99.90
31725;DHT22;18306;40.960;14.836;2022-12-20T07:24:53;6.80;99.90
31725;DHT22;18306;40.960;14.836;2022-12-20T07:27:19;6.90;99.90
31725;DHT22;18306;40.960;14.836;2022-12-20T07:29:46;6.90;99.90
31725;DHT22;18306;40.960;14.836;2022-12-20T07:32:13;6.90;99.90
31725;DHT22;18306;40.960;14.836;2022-12-20T07:34:40;6.80;99.90
31725;DHT22;18306;40.960;14.836;2022-12-20T07:37:08;6.80;99.90
31725;DHT22;18306;40.960;14.836;2022-12-20T07:39:35;6.60;99.90
31725;DHT22;18306;40.960;14.836;2022-12-20T07:42:02;6.40;99.90
31725;DHT22;18306;40.960;14.836;2022-12-20T07:44:40;6.40;99.90
31725;DHT22;18306;40.960;14.836;2022-12-20T07:47:07;6.30;99.90
31725;DHT22;18306;40.960;14.836;2022-12-20T07:49:36;6.40;99.90
31725;DHT22;18306;40.960;14.836;2022-12-20T07:52:03;6.40;99.90
31725;DHT22;18306;40.960;14.836;2022-12-20T07:54:39;6.50;99.90
31725;DHT22;18306;40.960;14.836;2022-12-20T07:57:13;6.70;99.90
31725;DHT22;18306;40.960;14.836;2022-12-20T07:59:44;6.70;99.90
31725;DHT22;18306;40.960;14.836;2022-12-20T08:02:16;6.80;99.90
31725;DHT22;18306;40.960;14.836;2022-12-20T08:04:45;6.90;99.90
31725;DHT22;18306;40.960;14.836;2022-12-20T08:07:13;7.10;99.90
31725;DHT22;18306;40.960;14.836;2022-12-20T08:09:42;7.20;99.90
31725;DHT22;18306;40.960;14.836;2022-12-20T08:12:11;7.40;99.90
31725;DHT22;18306;40.960;14.836;2022-12-20T08:14:39;7.50;99.90
31725;DHT22;18306;40.960;14.836;2022-12-20T08:17:06;7.50;99.90
31725;DHT22;18306;40.960;14.836;2022-12-20T08:19:33;7.50;99.90
31725;DHT22;18306;40.960;14.836;2022-12-20T08:22:00;7.50;99.90
31725;DHT22;18306;40.960;14.836;2022-12-20T08:24:28;7.60;99.90
31725;DHT22;18306;40.960;14.836;2022-12-20T08:26:55;7.60;99.90
31725;DHT22;18306;40.960;14.836;2022-12-20T08:29:22;7.70;99.90
31725;DHT22;18306;40.960;14.836;2022-12-20T08:31:49;7.70;99.90
31725;DHT22;18306;40.960;14.836;2022-12-20T08:34:16;7.80;99.90
31725;DHT22;18306;40.960;14.836;2022-12-20T08:36:43;7.80;99.90
31725;DHT22;18306;40.960;14.836;2022-12-20T08:39:10;7.80;99.90
31725;DHT22;18306;40.960;14.836;2022-12-20T08:41:40;8.00;99.90
31725;DHT22;18306;40.960;14.836;2022-12-20T08:44:08;8.10;99.90
31725;DHT22;18306;40.960;14.836;2022-12-20T08:46:36;8.10;99.90
31725;DHT22;18306;40.960;14.836;2022-12-20T08:49:04;8.10;99.90
31725;DHT22;18306;40.960;14.836;2022-12-20T08:51:31;8.10;99.90
31725;DHT22;18306;40.960;14.836;2022-12-20T08:54:02;8.10;99.90
31725;DHT22;18306;40.960;14.836;2022-12-20T08:56:29;8.10;99.90
31725;DHT22;18306;40.960;14.836;2022-12-20T08:58:58;8.10;99.90
31725;DHT22;18306;40.960;14.836;2022-12-20T09:01:28;8.20;99.90
31725;DHT22;18306;40.960;14.836;2022-12-20T09:03:55;8.20;99.90
31725;DHT22;18306;40.960;14.836;2022-12-20T09:06:23;8.00;99.90
31725;DHT22;18306;40.960;14.836;2022-12-20T09:08:50;8.10;99.90
31725;DHT22;18306;40.960;14.836;2022-12-20T09:11:24;8.20;99.90
31725;DHT22;18306;40.960;14.836;2022-12-20T09:13:54;8.40;99.90
31725;DHT22;18306;40.960;14.836;2022-12-20T09:16:26;8.60;99.90
31725;DHT22;18306;40.960;14.836;2022-12-20T09:19:00;8.70;99.90
31725;DHT22;18306;40.960;14.836;2022-12-20T09:21:29;8.90;99.90
31725;DHT22;18306;40.960;14.836;2022-12-20T09:23:56;9.00;99.90
31725;DHT22;18306;40.960;14.836;2022-12-20T09:26:24;9.20;99.90
31725;DHT22;18306;40.960;14.836;2022-12-20T09:28:52;9.20;99.90
31725;DHT22;18306;40.960;14.836;2022-12-20T09:31:21;9.20;99.90
31725;DHT22;18306;40.960;14.836;2022-12-20T09:33:53;9.10;99.90
31725;DHT22;18306;40.960;14.836;2022-12-20T09:36:22;9.10;99.90
31725;DHT22;18306;40.960;14.836;2022-12-20T09:38:50;9.10;99.90
31725;DHT22;18306;40.960;14.836;2022-12-20T09:43:47;9.40;99.90
31725;DHT22;18306;40.960;14.836;2022-12-20T09:46:16;9.50;99.90
31725;DHT22;18306;40.960;14.836;2022-12-20T09:48:43;9.60;99.90
31725;DHT22;18306;40.960;14.836;2022-12-20T09:56:35;9.80;99.90
31725;DHT22;18306;40.960;14.836;2022-12-20T09:59:32;9.80;99.90
31725;DHT22;18306;40.960;14.836;2022-12-20T10:02:12;9.90;99.90
31725;DHT22;18306;40.960;14.836;2022-12-20T10:04:42;10.20;99.90
31725;DHT22;18306;40.960;14.836;2022-12-20T10:13:05;10.70;99.90
31725;DHT22;18306;40.960;14.836;2022-12-20T10:15:55;11.00;99.90
31725;DHT22;18306;40.960;14.836;2022-12-20T10:18:55;11.10;99.90
31725;DHT22;18306;40.960;14.836;2022-12-20T10:24:33;11.30;99.90
31725;DHT22;18306;40.960;14.836;2022-12-20T10:27:19;11.30;99.90
31725;DHT22;18306;40.960;14.836;2022-12-20T10:29:48;11.20;99.90
31725;DHT22;18306;40.960;14.836;2022-12-20T10:32:18;11.20;99.90
31725;DHT22;18306;40.960;14.836;2022-12-20T10:34:54;11.30;99.90
31725;DHT22;18306;40.960;14.836;2022-12-20T10:37:22;11.20;99.90
31725;DHT22;18306;40.960;14.836;2022-12-20T10:39:50;11.30;99.90
31725;DHT22;18306;40.960;14.836;2022-12-20T10:42:37;11.30;99.90
31725;DHT22;18306;40.960;14.836;2022-12-20T10:45:30;11.60;99.90
31725;DHT22;18306;40.960;14.836;2022-12-20T10:48:00;11.80;99.90
31725;DHT22;18306;40.960;14.836;2022-12-20T10:50:27;11.80;99.90
31725;DHT22;18306;40.960;14.836;2022-12-20T10:55:39;11.80;99.90
31725;DHT22;18306;40.960;14.836;2022-12-20T11:01:15;12.00;99.90
31725;DHT22;18306;40.960;14.836;2022-12-20T11:03:55;12.10;99.90
31725;DHT22;18306;40.960;14.836;2022-12-20T11:06:26;12.10;99.90
31725;DHT22;18306;40.960;14.836;2022-12-20T11:08:55;12.20;99.90
31725;DHT22;18306;40.960;14.836;2022-12-20T11:11:38;12.30;99.90
31725;DHT22;18306;40.960;14.836;2022-12-20T11:14:14;12.20;99.90
31725;DHT22;18306;40.960;14.836;2022-12-20T11:16:44;12.20;99.90
31725;DHT22;18306;40.960;14.836;2022-12-20T11:22:21;12.40;99.90
31725;DHT22;18306;40.960;14.836;2022-12-20T11:35:16;13.00;99.90
31725;DHT22;18306;40.960;14.836;2022-12-20T11:40:47;13.00;99.90
31725;DHT22;18306;40.960;14.836;2022-12-20T11:52:08;13.40;99.90
31725;DHT22;18306;40.960;14.836;2022-12-20T11:54:43;13.40;99.90
31725;DHT22;18306;40.960;14.836;2022-12-20T12:00:13;13.30;99.90
31725;DHT22;18306;40.960;14.836;2022-12-20T12:02:47;13.40;99.90
31725;DHT22;18306;40.960;14.836;2022-12-20T12:05:24;13.60;99.90
31725;DHT22;18306;40.960;14.836;2022-12-20T12:07:58;13.60;99.90
31725;DHT22;18306;40.960;14.836;2022-12-20T12:10:33;13.80;99.90
31725;DHT22;18306;40.960;14.836;2022-12-20T12:13:14;13.90;99.90
31725;DHT22;18306;40.960;14.836;2022-12-20T12:15:59;13.90;99.90
31725;DHT22;18306;40.960;14.836;2022-12-20T12:18:29;13.80;99.90
31725;DHT22;18306;40.960;14.836;2022-12-20T12:26:32;14.10;99.90
31725;DHT22;18306;40.960;14.836;2022-12-20T12:29:11;14.40;99.90
31725;DHT22;18306;40.960;14.836;2022-12-20T12:37:44;14.30;99.90
31725;DHT22;18306;40.960;14.836;2022-12-20T12:40:31;14.40;99.90
31725;DHT22;18306;40.960;14.836;2022-12-20T12:43:51;14.40;99.90
31725;DHT22;18306;40.960;14.836;2022-12-20T12:46:32;14.50;99.90
31725;DHT22;18306;40.960;14.836;2022-12-20T12:49:16;14.60;99.90
31725;DHT22;18306;40.960;14.836;2022-12-20T12:51:57;14.60;99.90
31725;DHT22;18306;40.960;14.836;2022-12-20T12:54:44;14.60;99.90
31725;DHT22;18306;40.960;14.836;2022-12-20T12:57:14;14.50;99.90
31725;DHT22;18306;40.960;14.836;2022-12-20T12:59:44;14.80;99.90
31725;DHT22;18306;40.960;14.836;2022-12-20T13:09:59;14.70;99.90
31725;DHT22;18306;40.960;14.836;2022-12-20T13:18:16;14.40;99.90
31725;DHT22;18306;40.960;14.836;2022-12-20T13:24:34;14.60;99.90
31725;DHT22;18306;40.960;14.836;2022-12-20T13:27:48;14.50;99.90
31725;DHT22;18306;40.960;14.836;2022-12-20T13:38:01;14.80;99.90
31725;DHT22;18306;40.960;14.836;2022-12-20T13:40:37;14.70;99.90
31725;DHT22;18306;40.960;14.836;2022-12-20T13:45:52;14.80;99.90
31725;DHT22;18306;40.960;14.836;2022-12-20T13:51:22;14.90;99.90
31725;DHT22;18306;40.960;14.836;2022-12-20T13:54:22;15.00;99.90
31725;DHT22;18306;40.960;14.836;2022-12-20T13:56:50;15.00;99.90
31725;DHT22;18306;40.960;14.836;2022-12-20T13:59:26;15.00;99.90
31725;DHT22;18306;40.960;14.836;2022-12-20T14:02:01;15.10;99.90
31725;DHT22;18306;40.960;14.836;2022-12-20T14:04:45;14.90;99.90
31725;DHT22;18306;40.960;14.836;2022-12-20T14:07:17;15.10;99.90
31725;DHT22;18306;40.960;14.836;2022-12-20T14:09:46;15.20;99.90
31725;DHT22;18306;40.960;14.836;2022-12-20T14:12:15;15.30;99.90
31725;DHT22;18306;40.960;14.836;2022-12-20T14:14:44;15.20;99.90
31725;DHT22;18306;40.960;14.836;2022-12-20T14:17:28;15.20;99.90
31725;DHT22;18306;40.960;14.836;2022-12-20T14:22:46;15.30;99.90
31725;DHT22;18306;40.960;14.836;2022-12-20T14:25:27;15.30;99.90
31725;DHT22;18306;40.960;14.836;2022-12-20T14:27:55;15.20;99.90
31725;DHT22;18306;40.960;14.836;2022-12-20T14:30:42;15.20;99.90
31725;DHT22;18306;40.960;14.836;2022-12-20T14:33:34;15.20;99.90
31725;DHT22;18306;40.960;14.836;2022-12-20T14:38:48;15.40;99.90
31725;DHT22;18306;40.960;14.836;2022-12-20T14:41:35;15.50;99.90
31725;DHT22;18306;40.960;14.836;2022-12-20T14:44:15;15.60;99.90
31725;DHT22;18306;40.960;14.836;2022-12-20T14:46:48;15.60;99.90
31725;DHT22;18306;40.960;14.836;2022-12-20T14:51:52;15.50;99.90
31725;DHT22;18306;40.960;14.836;2022-12-20T14:54:29;15.60;99.90
31725;DHT22;18306;40.960;14.836;2022-12-20T14:56:58;15.60;99.90
31725;DHT22;18306;40.960;14.836;2022-12-20T14:59:29;15.70;99.90
31725;DHT22;18306;40.960;14.836;2022-12-20T15:01:57;15.60;99.90
31725;DHT22;18306;40.960;14.836;2022-12-20T15:04:44;15.60;99.90
31725;DHT22;18306;40.960;14.836;2022-12-20T15:07:30;15.30;99.90
31725;DHT22;18306;40.960;14.836;2022-12-20T15:09:57;15.10;99.90
31725;DHT22;18306;40.960;14.836;2022-12-20T15:12:24;15.00;99.90
31725;DHT22;18306;40.960;14.836;2022-12-20T15:14:51;14.80;99.90
31725;DHT22;18306;40.960;14.836;2022-12-20T15:17:18;14.90;99.90
31725;DHT22;18306;40.960;14.836;2022-12-20T15:19:45;14.90;99.90
31725;DHT22;18306;40.960;14.836;2022-12-20T15:22:14;15.00;99.90
31725;DHT22;18306;40.960;14.836;2022-12-20T15:24:42;14.90;99.90
31725;DHT22;18306;40.960;14.836;2022-12-20T15:27:14;14.90;99.90
31725;DHT22;18306;40.960;14.836;2022-12-20T15:29:41;15.00;99.90
31725;DHT22;18306;40.960;14.836;2022-12-20T15:32:23;14.90;99.90
31725;DHT22;18306;40.960;14.836;2022-12-20T15:34:51;14.80;99.90
31725;DHT22;18306;40.960;14.836;2022-12-20T15:37:18;14.70;99.90
31725;DHT22;18306;40.960;14.836;2022-12-20T15:39:45;14.50;99.90
31725;DHT22;18306;40.960;14.836;2022-12-20T15:42:19;14.40;99.90
31725;DHT22;18306;40.960;14.836;2022-12-20T15:44:51;14.20;99.90
31725;DHT22;18306;40.960;14.836;2022-12-20T15:47:20;14.00;99.90
31725;DHT22;18306;40.960;14.836;2022-12-20T15:49:48;13.90;99.90
31725;DHT22;18306;40.960;14.836;2022-12-20T15:52:21;13.70;99.90
31725;DHT22;18306;40.960;14.836;2022-12-20T15:54:49;13.60;99.90
31725;DHT22;18306;40.960;14.836;2022-12-20T15:57:16;13.50;99.90
31725;DHT22;18306;40.960;14.836;2022-12-20T15:59:43;13.40;99.90
31725;DHT22;18306;40.960;14.836;2022-12-20T16:04:49;13.40;99.90
31725;DHT22;18306;40.960;14.836;2022-12-20T16:07:20;13.30;99.90
31725;DHT22;18306;40.960;14.836;2022-12-20T16:09:47;13.20;99.90
31725;DHT22;18306;40.960;14.836;2022-12-20T16:12:31;13.00;99.90
31725;DHT22;18306;40.960;14.836;2022-12-20T16:14:58;12.80;99.90
31725;DHT22;18306;40.960;14.836;2022-12-20T16:17:26;12.90;99.90
31725;DHT22;18306;40.960;14.836;2022-12-20T16:19:53;12.80;99.90
31725;DHT22;18306;40.960;14.836;2022-12-20T16:22:22;12.80;99.90
31725;DHT22;18306;40.960;14.836;2022-12-20T16:24:54;12.70;99.90
31725;DHT22;18306;40.960;14.836;2022-12-20T16:27:33;12.70;99.90
31725;DHT22;18306;40.960;14.836;2022-12-20T16:30:04;12.60;99.90
31725;DHT22;18306;40.960;14.836;2022-12-20T16:32:38;12.60;99.90
31725;DHT22;18306;40.960;14.836;2022-12-20T16:35:24;12.60;99.90
31725;DHT22;18306;40.960;14.836;2022-12-20T16:37:59;12.60;99.90
31725;DHT22;18306;40.960;14.836;2022-12-20T16:40:42;12.50;99.90
31725;DHT22;18306;40.960;14.836;2022-12-20T16:43:14;12.50;99.90
31725;DHT22;18306;40.960;14.836;2022-12-20T16:45:48;12.30;99.90
31725;DHT22;18306;40.960;14.836;2022-12-20T16:48:28;12.20;99.90
31725;DHT22;18306;40.960;14.836;2022-12-20T16:51:11;12.20;99.90
31725;DHT22;18306;40.960;14.836;2022-12-20T16:56:29;12.10;99.90
31725;DHT22;18306;40.960;14.836;2022-12-20T16:59:04;12.00;99.90
31725;DHT22;18306;40.960;14.836;2022-12-20T17:01:38;11.90;99.90
31725;DHT22;18306;40.960;14.836;2022-12-20T17:04:14;12.00;99.90
31725;DHT22;18306;40.960;14.836;2022-12-20T17:06:44;11.90;99.90
31725;DHT22;18306;40.960;14.836;2022-12-20T17:09:17;11.80;99.90
31725;DHT22;18306;40.960;14.836;2022-12-20T17:11:47;11.90;99.90
31725;DHT22;18306;40.960;14.836;2022-12-20T17:14:15;11.80;99.90
31725;DHT22;18306;40.960;14.836;2022-12-20T17:16:53;11.70;99.90
31725;DHT22;18306;40.960;14.836;2022-12-20T17:19:21;11.70;99.90
31725;DHT22;18306;40.960;14.836;2022-12-20T17:21:48;11.60;99.90
31725;DHT22;18306;40.960;14.836;2022-12-20T17:24:19;11.40;99.90
31725;DHT22;18306;40.960;14.836;2022-12-20T17:26:49;11.40;99.90
31725;DHT22;18306;40.960;14.836;2022-12-20T17:29:17;11.30;99.90
31725;DHT22;18306;40.960;14.836;2022-12-20T17:31:45;11.30;99.90
31725;DHT22;18306;40.960;14.836;2022-12-20T17:34:18;11.30;99.90
31725;DHT22;18306;40.960;14.836;2022-12-20T17:36:48;11.30;99.90
31725;DHT22;18306;40.960;14.836;2022-12-20T17:39:17;11.30;99.90
31725;DHT22;18306;40.960;14.836;2022-12-20T17:41:44;11.20;99.90
31725;DHT22;18306;40.960;14.836;2022-12-20T17:44:25;11.20;99.90
31725;DHT22;18306;40.960;14.836;2022-12-20T17:46:54;11.20;99.90
31725;DHT22;18306;40.960;14.836;2022-12-20T17:49:22;11.10;99.90
31725;DHT22;18306;40.960;14.836;2022-12-20T17:51:50;11.10;99.90
31725;DHT22;18306;40.960;14.836;2022-12-20T17:54:22;11.00;99.90
31725;DHT22;18306;40.960;14.836;2022-12-20T17:56:51;10.90;99.90
31725;DHT22;18306;40.960;14.836;2022-12-20T17:59:19;10.90;99.90